sensor_id;sensor_type;location;lat;lon;timestamp;pressure;altitude;pressure_sealevel;temperature;humidity
10712;BME280;5407;51.234;6.804;2023-01-01T00:01:19;100603.06;;;24.50;42.17
10712;BME280;5407;51.234;6.804;2023-01-01T00:03:49;100601.06;;;24.51;41.75
10712;BME280;5407;51.234;6.804;2023-01-01T00:06:17;100621.16;;;24.51;42.04
10712;BME280;5407;51.234;6.804;2023-01-01T00:08:44;100621.16;;;24.51;41.90
10712;BME280;5407;51.234;6.804;2023-01-01T00:11:11;100611.69;;;24.52;41.99
10712;BME280;5407;51.234;6.804;2023-01-01T00:13:39;100611.69;;;24.52;41.95
10712;BME280;5407;51.234;6.804;2023-01-01T00:16:08;100606.91;;;24.53;41.97
10712;BME280;5407;51.234;6.804;2023-01-01T00:18:36;100595.88;;;24.53;41.90
10712;BME280;5407;51.234;6.804;2023-01-01T00:21:07;100605.72;;;24.54;41.80
10712;BME280;5407;51.234;6.804;2023-01-01T00:23:35;100596.69;;;24.53;41.83
10712;BME280;5407;51.234;6.804;2023-01-01T00:26:08;100596.69;;;24.53;41.73
10712;BME280;5407;51.234;6.804;2023-01-01T00:28:35;100602.19;;;24.53;42.02
10712;BME280;5407;51.234;6.804;2023-01-01T00:31:05;100595.88;;;24.53;41.81
10712;BME280;5407;51.234;6.804;2023-01-01T00:33:32;100592.72;;;24.54;41.82
10712;BME280;5407;51.234;6.804;2023-01-01T00:36:06;100596.69;;;24.53;41.86
10712;BME280;5407;51.234;6.804;2023-01-01T00:38:33;100610.03;;;24.55;41.82
10712;BME280;5407;51.234;6.804;2023-01-01T00:41:00;100606.91;;;24.53;41.75
10712;BME280;5407;51.234;6.804;2023-01-01T00:43:27;100610.47;;;24.53;41.81
10712;BME280;5407;51.234;6.804;2023-01-01T00:45:54;100609.69;;;24.53;41.58
10712;BME280;5407;51.234;6.804;2023-01-01T00:48:21;100610.47;;;24.53;41.79
10712;BME280;5407;51.234;6.804;2023-01-01T00:50:49;100615.97;;;24.53;41.80
10712;BME280;5407;51.234;6.804;2023-01-01T00:53:18;100613.22;;;24.53;41.61
10712;BME280;5407;51.234;6.804;2023-01-01T00:55:46;100618.75;;;24.53;41.55
10712;BME280;5407;51.234;6.804;2023-01-01T00:58:14;100615.97;;;24.53;41.56
10712;BME280;5407;51.234;6.804;2023-01-01T01:00:41;100606.91;;;24.53;41.70
10712;BME280;5407;51.234;6.804;2023-01-01T01:03:09;100607.38;;;24.51;41.60
10712;BME280;5407;51.234;6.804;2023-01-01T01:05:52;100609.69;;;24.53;41.67
10712;BME280;5407;51.234;6.804;2023-01-01T01:08:20;100610.13;;;24.51;41.39
10712;BME280;5407;51.234;6.804;2023-01-01T01:10:47;100611.69;;;24.52;41.62
10712;BME280;5407;51.234;6.804;2023-01-01T01:13:14;100610.91;;;24.52;41.54
10712;BME280;5407;51.234;6.804;2023-01-01T01:15:41;100614.84;;;24.51;41.47
10712;BME280;5407;51.234;6.804;2023-01-01T01:18:08;100618.41;;;24.51;41.55
10712;BME280;5407;51.234;6.804;2023-01-01T01:20:34;100619.16;;;24.52;41.21
10712;BME280;5407;51.234;6.804;2023-01-01T01:23:01;100618.41;;;24.51;41.25
10712;BME280;5407;51.234;6.804;2023-01-01T01:25:30;100625.91;;;24.51;41.44
10712;BME280;5407;51.234;6.804;2023-01-01T01:27:56;100622.38;;;24.50;41.29
10712;BME280;5407;51.234;6.804;2023-01-01T01:30:23;100625.13;;;24.50;41.44
10712;BME280;5407;51.234;6.804;2023-01-01T01:32:50;100633.41;;;24.50;41.21
10712;BME280;5407;51.234;6.804;2023-01-01T01:35:17;100633.41;;;24.50;41.46
10712;BME280;5407;51.234;6.804;2023-01-01T01:37:44;100636.94;;;24.51;41.20
10712;BME280;5407;51.234;6.804;2023-01-01T01:40:11;100636.16;;;24.50;41.48
10712;BME280;5407;51.234;6.804;2023-01-01T01:42:46;100636.16;;;24.50;41.36
10712;BME280;5407;51.234;6.804;2023-01-01T01:45:13;100644.44;;;24.50;41.19
10712;BME280;5407;51.234;6.804;2023-01-01T01:47:46;100645.63;;;24.49;41.34
10712;BME280;5407;51.234;6.804;2023-01-01T01:50:20;100647.19;;;24.50;41.22
10712;BME280;5407;51.234;6.804;2023-01-01T01:53:00;100647.19;;;24.50;41.07
10712;BME280;5407;51.234;6.804;2023-01-01T01:55:31;100649.16;;;24.50;41.15
10712;BME280;5407;51.234;6.804;2023-01-01T01:58:01;100656.66;;;24.49;41.19
10712;BME280;5407;51.234;6.804;2023-01-01T02:00:28;100647.19;;;24.50;40.95
10712;BME280;5407;51.234;6.804;2023-01-01T02:02:58;100657.44;;;24.50;40.92
10712;BME280;5407;51.234;6.804;2023-01-01T02:05:28;100660.19;;;24.50;41.02
10712;BME280;5407;51.234;6.804;2023-01-01T02:07:56;100659.41;;;24.49;40.98
10712;BME280;5407;51.234;6.804;2023-01-01T02:10:26;100656.66;;;24.49;41.18
10712;BME280;5407;51.234;6.804;2023-01-01T02:12:53;100652.72;;;24.50;41.14
10712;BME280;5407;51.234;6.804;2023-01-01T02:15:24;100658.63;;;24.49;41.15
10712;BME280;5407;51.234;6.804;2023-01-01T02:18:00;100655.88;;;24.49;41.12
10712;BME280;5407;51.234;6.804;2023-01-01T02:20:33;100649.59;;;24.48;41.23
10712;BME280;5407;51.234;6.804;2023-01-01T02:23:19;100645.63;;;24.49;41.07
10712;BME280;5407;51.234;6.804;2023-01-01T02:26:09;100653.91;;;24.49;41.14
10712;BME280;5407;51.234;6.804;2023-01-01T02:28:54;100660.19;;;24.50;41.05
10712;BME280;5407;51.234;6.804;2023-01-01T02:31:25;100651.13;;;24.49;41.04
10712;BME280;5407;51.234;6.804;2023-01-01T02:34:00;100662.16;;;24.49;41.06
10712;BME280;5407;51.234;6.804;2023-01-01T02:36:30;100647.59;;;24.49;41.17
10712;BME280;5407;51.234;6.804;2023-01-01T02:39:00;100651.13;;;24.49;41.11
10712;BME280;5407;51.234;6.804;2023-01-01T02:41:32;100657.44;;;24.50;40.95
10712;BME280;5407;51.234;6.804;2023-01-01T02:44:03;100653.91;;;24.49;41.05
10712;BME280;5407;51.234;6.804;2023-01-01T02:46:31;100648.38;;;24.49;41.12
10712;BME280;5407;51.234;6.804;2023-01-01T02:48:58;100662.16;;;24.49;41.15
10712;BME280;5407;51.234;6.804;2023-01-01T02:51:33;100665.72;;;24.50;40.85
10712;BME280;5407;51.234;6.804;2023-01-01T02:54:08;100651.94;;;24.50;40.98
10712;BME280;5407;51.234;6.804;2023-01-01T02:56:42;100655.47;;;24.50;40.95
10712;BME280;5407;51.234;6.804;2023-01-01T02:59:19;100662.16;;;24.49;41.29
10712;BME280;5407;51.234;6.804;2023-01-01T03:02:11;100665.28;;;24.51;41.21
10712;BME280;5407;51.234;6.804;2023-01-01T03:04:52;100658.22;;;24.50;41.33
10712;BME280;5407;51.234;6.804;2023-01-01T03:07:26;100658.22;;;24.50;41.36
10712;BME280;5407;51.234;6.804;2023-01-01T03:10:02;100663.75;;;24.50;41.39
10712;BME280;5407;51.234;6.804;2023-01-01T03:12:33;100665.28;;;24.51;41.37
10712;BME280;5407;51.234;6.804;2023-01-01T03:15:16;100658.22;;;24.50;41.48
10712;BME280;5407;51.234;6.804;2023-01-01T03:17:49;100661.00;;;24.50;41.42
10712;BME280;5407;51.234;6.804;2023-01-01T03:20:23;100663.75;;;24.50;41.40
10712;BME280;5407;51.234;6.804;2023-01-01T03:22:51;100673.56;;;24.51;41.46
10712;BME280;5407;51.234;6.804;2023-01-01T03:25:22;100681.06;;;24.51;41.35
10712;BME280;5407;51.234;6.804;2023-01-01T03:27:54;100676.31;;;24.51;41.54
10712;BME280;5407;51.234;6.804;2023-01-01T03:30:24;100680.31;;;24.50;41.32
10712;BME280;5407;51.234;6.804;2023-01-01T03:32:54;100684.59;;;24.51;41.38
10712;BME280;5407;51.234;6.804;2023-01-01T03:35:35;100687.38;;;24.51;41.66
10712;BME280;5407;51.234;6.804;2023-01-01T03:38:08;100694.09;;;24.50;41.40
10712;BME280;5407;51.234;6.804;2023-01-01T03:40:37;100696.41;;;24.52;41.33
10712;BME280;5407;51.234;6.804;2023-01-01T03:43:09;100690.88;;;24.52;41.17
10712;BME280;5407;51.234;6.804;2023-01-01T03:45:42;100675.53;;;24.51;41.09
10712;BME280;5407;51.234;6.804;2023-01-01T03:48:11;100686.56;;;24.51;41.12
10712;BME280;5407;51.234;6.804;2023-01-01T03:50:48;100699.16;;;24.52;41.19
10712;BME280;5407;51.234;6.804;2023-01-01T03:53:28;100699.16;;;24.52;41.19
10712;BME280;5407;51.234;6.804;2023-01-01T03:56:03;100697.19;;;24.52;41.09
10712;BME280;5407;51.234;6.804;2023-01-01T03:58:35;100710.19;;;24.52;40.94
10712;BME280;5407;51.234;6.804;2023-01-01T04:01:10;100699.16;;;24.52;40.93
10712;BME280;5407;51.234;6.804;2023-01-01T04:03:39;100705.47;;;24.52;40.99
10712;BME280;5407;51.234;6.804;2023-01-01T04:06:07;100713.72;;;24.52;40.90
10712;BME280;5407;51.234;6.804;2023-01-01T04:08:35;100718.47;;;24.52;40.83
10712;BME280;5407;51.234;6.804;2023-01-01T04:11:05;100710.19;;;24.52;40.86
10712;BME280;5407;51.234;6.804;2023-01-01T04:13:54;100710.19;;;24.52;41.10
10712;BME280;5407;51.234;6.804;2023-01-01T04:16:22;100703.91;;;24.51;40.88
10712;BME280;5407;51.234;6.804;2023-01-01T04:18:49;100704.66;;;24.52;40.80
10712;BME280;5407;51.234;6.804;2023-01-01T04:21:16;100698.41;;;24.51;40.79
10712;BME280;5407;51.234;6.804;2023-01-01T04:23:43;100707.88;;;24.50;40.79
10712;BME280;5407;51.234;6.804;2023-01-01T04:26:13;100706.28;;;24.49;40.74
10712;BME280;5407;51.234;6.804;2023-01-01T04:28:40;100718.91;;;24.50;40.91
10712;BME280;5407;51.234;6.804;2023-01-01T04:31:08;100701.56;;;24.50;40.70
10712;BME280;5407;51.234;6.804;2023-01-01T04:33:37;100714.16;;;24.51;40.84
10712;BME280;5407;51.234;6.804;2023-01-01T04:36:04;100703.53;;;24.49;40.80
10712;BME280;5407;51.234;6.804;2023-01-01T04:38:32;100717.34;;;24.49;40.97
10712;BME280;5407;51.234;6.804;2023-01-01T04:41:00;100706.28;;;24.49;40.66
10712;BME280;5407;51.234;6.804;2023-01-01T04:43:28;100715.38;;;24.50;40.65
10712;BME280;5407;51.234;6.804;2023-01-01T04:45:55;100710.28;;;24.48;40.88
10712;BME280;5407;51.234;6.804;2023-01-01T04:48:22;100730.34;;;24.49;40.67
10712;BME280;5407;51.234;6.804;2023-01-01T04:50:55;100732.34;;;24.48;40.89
10712;BME280;5407;51.234;6.804;2023-01-01T04:53:22;100728.78;;;24.48;40.76
10712;BME280;5407;51.234;6.804;2023-01-01T04:55:49;100726.81;;;24.48;40.75
10712;BME280;5407;51.234;6.804;2023-01-01T04:58:16;100735.09;;;24.48;40.81
10712;BME280;5407;51.234;6.804;2023-01-01T05:00:45;100730.78;;;24.47;40.56
10712;BME280;5407;51.234;6.804;2023-01-01T05:03:13;100741.03;;;24.47;40.38
10712;BME280;5407;51.234;6.804;2023-01-01T05:05:40;100735.50;;;24.47;40.71
10712;BME280;5407;51.234;6.804;2023-01-01T05:08:08;100746.53;;;24.47;40.71
10712;BME280;5407;51.234;6.804;2023-01-01T05:10:35;100740.25;;;24.46;40.64
10712;BME280;5407;51.234;6.804;2023-01-01T05:13:05;100723.72;;;24.46;40.64
10712;BME280;5407;51.234;6.804;2023-01-01T05:15:34;100740.25;;;24.46;40.75
10712;BME280;5407;51.234;6.804;2023-01-01T05:18:01;100741.47;;;24.45;40.62
10712;BME280;5407;51.234;6.804;2023-01-01T05:20:28;100743.03;;;24.46;40.76
10712;BME280;5407;51.234;6.804;2023-01-01T05:22:55;100734.75;;;24.46;40.80
10712;BME280;5407;51.234;6.804;2023-01-01T05:25:23;100739.94;;;24.44;40.59
10712;BME280;5407;51.234;6.804;2023-01-01T05:27:50;100744.22;;;24.45;40.56
10712;BME280;5407;51.234;6.804;2023-01-01T05:30:17;100748.53;;;24.46;40.65
10712;BME280;5407;51.234;6.804;2023-01-01T05:32:44;100742.22;;;24.46;40.75
10712;BME280;5407;51.234;6.804;2023-01-01T05:35:10;100744.22;;;24.45;40.70
10712;BME280;5407;51.234;6.804;2023-01-01T05:37:37;100750.50;;;24.46;40.68
10712;BME280;5407;51.234;6.804;2023-01-01T05:40:05;100751.28;;;24.46;40.73
10712;BME280;5407;51.234;6.804;2023-01-01T05:42:33;100749.31;;;24.47;40.63
10712;BME280;5407;51.234;6.804;2023-01-01T05:45:01;100758.38;;;24.47;40.57
10712;BME280;5407;51.234;6.804;2023-01-01T05:47:28;100758.38;;;24.47;40.60
10712;BME280;5407;51.234;6.804;2023-01-01T05:49:54;100764.63;;;24.48;40.70
10712;BME280;5407;51.234;6.804;2023-01-01T05:52:21;100768.19;;;24.48;40.48
10712;BME280;5407;51.234;6.804;2023-01-01T05:54:48;100770.94;;;24.48;40.45
10712;BME280;5407;51.234;6.804;2023-01-01T05:57:15;100783.53;;;24.49;40.50
10712;BME280;5407;51.234;6.804;2023-01-01T05:59:43;100783.53;;;24.49;40.37
10712;BME280;5407;51.234;6.804;2023-01-01T06:02:10;100785.50;;;24.49;40.35
10712;BME280;5407;51.234;6.804;2023-01-01T06:04:37;100791.81;;;24.49;40.67
10712;BME280;5407;51.234;6.804;2023-01-01T06:07:03;100802.84;;;24.49;40.46
10712;BME280;5407;51.234;6.804;2023-01-01T06:09:30;100797.69;;;24.51;40.40
10712;BME280;5407;51.234;6.804;2023-01-01T06:11:57;100801.66;;;24.50;40.56
10712;BME280;5407;51.234;6.804;2023-01-01T06:14:24;100792.19;;;24.51;40.60
10712;BME280;5407;51.234;6.804;2023-01-01T06:16:52;100796.91;;;24.51;40.40
10712;BME280;5407;51.234;6.804;2023-01-01T06:19:19;100803.22;;;24.51;40.66
10712;BME280;5407;51.234;6.804;2023-01-01T06:21:46;100795.69;;;24.52;40.36
10712;BME280;5407;51.234;6.804;2023-01-01T06:24:13;100792.19;;;24.51;40.57
10712;BME280;5407;51.234;6.804;2023-01-01T06:26:40;100800.44;;;24.51;40.32
10712;BME280;5407;51.234;6.804;2023-01-01T06:29:06;100821.31;;;24.52;40.51
10712;BME280;5407;51.234;6.804;2023-01-01T06:31:33;100820.09;;;24.53;40.38
10712;BME280;5407;51.234;6.804;2023-01-01T06:34:02;100815.78;;;24.52;40.50
10712;BME280;5407;51.234;6.804;2023-01-01T06:36:28;100832.34;;;24.52;40.39
10712;BME280;5407;51.234;6.804;2023-01-01T06:38:55;100837.06;;;24.52;40.56
10712;BME280;5407;51.234;6.804;2023-01-01T06:41:24;100842.16;;;24.53;40.56
10712;BME280;5407;51.234;6.804;2023-01-01T06:43:54;100843.38;;;24.52;40.58
10712;BME280;5407;51.234;6.804;2023-01-01T06:46:22;100846.13;;;24.52;40.36
10712;BME280;5407;51.234;6.804;2023-01-01T06:48:51;100847.34;;;24.51;40.31
10712;BME280;5407;51.234;6.804;2023-01-01T06:51:22;100854.41;;;24.52;40.23
10712;BME280;5407;51.234;6.804;2023-01-01T06:53:51;100866.66;;;24.51;40.18
10712;BME280;5407;51.234;6.804;2023-01-01T06:56:18;100863.44;;;24.53;40.54
10712;BME280;5407;51.234;6.804;2023-01-01T06:58:46;100861.13;;;24.51;40.34
10712;BME280;5407;51.234;6.804;2023-01-01T07:01:14;100861.13;;;24.51;40.32
10712;BME280;5407;51.234;6.804;2023-01-01T07:03:43;100866.66;;;24.51;40.51
10712;BME280;5407;51.234;6.804;2023-01-01T07:06:10;100858.38;;;24.51;40.60
10712;BME280;5407;51.234;6.804;2023-01-01T07:08:38;100870.97;;;24.52;41.06
10712;BME280;5407;51.234;6.804;2023-01-01T07:11:05;100870.63;;;24.50;40.75
10712;BME280;5407;51.234;6.804;2023-01-01T07:13:32;100881.66;;;24.50;41.02
10712;BME280;5407;51.234;6.804;2023-01-01T07:15:59;100885.75;;;24.42;38.45
10712;BME280;5407;51.234;6.804;2023-01-01T07:18:26;100888.41;;;24.30;38.30
10712;BME280;5407;51.234;6.804;2023-01-01T07:20:53;100888.91;;;24.25;37.48
10712;BME280;5407;51.234;6.804;2023-01-01T07:23:21;100889.84;;;24.18;38.19
10712;BME280;5407;51.234;6.804;2023-01-01T07:25:50;100897.56;;;24.07;37.22
10712;BME280;5407;51.234;6.804;2023-01-01T07:28:18;100914.97;;;24.04;37.92
10712;BME280;5407;51.234;6.804;2023-01-01T07:30:45;100919.78;;;24.00;37.49
10712;BME280;5407;51.234;6.804;2023-01-01T07:33:16;100921.13;;;23.92;37.50
10712;BME280;5407;51.234;6.804;2023-01-01T07:35:44;100935.38;;;23.87;37.70
10712;BME280;5407;51.234;6.804;2023-01-01T07:38:11;100941.03;;;23.80;37.41
10712;BME280;5407;51.234;6.804;2023-01-01T07:40:38;100928.94;;;23.74;37.73
10712;BME280;5407;51.234;6.804;2023-01-01T07:43:07;100927.16;;;23.65;37.81
10712;BME280;5407;51.234;6.804;2023-01-01T07:45:34;100940.25;;;23.61;37.99
10712;BME280;5407;51.234;6.804;2023-01-01T07:48:01;100939.88;;;23.59;37.93
10712;BME280;5407;51.234;6.804;2023-01-01T07:50:31;100945.41;;;23.59;37.61
10712;BME280;5407;51.234;6.804;2023-01-01T07:52:58;100957.97;;;23.60;37.74
10712;BME280;5407;51.234;6.804;2023-01-01T07:55:25;100954.16;;;23.54;38.02
10712;BME280;5407;51.234;6.804;2023-01-01T07:57:52;100940.88;;;23.49;37.55
10712;BME280;5407;51.234;6.804;2023-01-01T08:00:21;100955.75;;;23.51;38.29
10712;BME280;5407;51.234;6.804;2023-01-01T08:02:48;100958.88;;;23.53;38.34
10712;BME280;5407;51.234;6.804;2023-01-01T08:05:15;100959.66;;;23.54;38.16
10712;BME280;5407;51.234;6.804;2023-01-01T08:07:45;100963.13;;;23.58;38.87
10712;BME280;5407;51.234;6.804;2023-01-01T08:10:11;100959.03;;;23.66;39.05
10712;BME280;5407;51.234;6.804;2023-01-01T08:12:38;100952.53;;;23.75;39.13
10712;BME280;5407;51.234;6.804;2023-01-01T08:15:06;100967.75;;;23.83;39.24
10712;BME280;5407;51.234;6.804;2023-01-01T08:17:35;100973.91;;;23.91;39.29
10712;BME280;5407;51.234;6.804;2023-01-01T08:20:02;100987.19;;;23.96;39.18
10712;BME280;5407;51.234;6.804;2023-01-01T08:22:29;100979.22;;;24.01;39.34
10712;BME280;5407;51.234;6.804;2023-01-01T08:24:56;100987.75;;;24.07;39.52
10712;BME280;5407;51.234;6.804;2023-01-01T08:27:23;100980.63;;;24.09;39.39
10712;BME280;5407;51.234;6.804;2023-01-01T08:29:50;100973.84;;;24.14;39.33
10712;BME280;5407;51.234;6.804;2023-01-01T08:32:17;100975.75;;;24.17;39.52
10712;BME280;5407;51.234;6.804;2023-01-01T08:34:45;100973.34;;;24.19;39.28
10712;BME280;5407;51.234;6.804;2023-01-01T08:37:12;100972.47;;;24.22;39.51
10712;BME280;5407;51.234;6.804;2023-01-01T08:39:40;100987.38;;;24.24;39.36
10712;BME280;5407;51.234;6.804;2023-01-01T08:42:06;101011.00;;;24.25;39.27
10712;BME280;5407;51.234;6.804;2023-01-01T08:44:33;101018.41;;;24.28;39.40
10712;BME280;5407;51.234;6.804;2023-01-01T08:47:00;101023.50;;;24.30;39.33
10712;BME280;5407;51.234;6.804;2023-01-01T08:49:27;101023.06;;;24.31;39.17
10712;BME280;5407;51.234;6.804;2023-01-01T08:51:55;101027.38;;;24.32;39.51
10712;BME280;5407;51.234;6.804;2023-01-01T08:54:22;101034.81;;;24.35;39.19
10712;BME280;5407;51.234;6.804;2023-01-01T08:56:49;101039.16;;;24.36;39.29
10712;BME280;5407;51.234;6.804;2023-01-01T08:59:16;101039.50;;;24.38;39.20
10712;BME280;5407;51.234;6.804;2023-01-01T09:01:42;101043.81;;;24.39;39.37
10712;BME280;5407;51.234;6.804;2023-01-01T09:04:09;101054.84;;;24.39;39.19
10712;BME280;5407;51.234;6.804;2023-01-01T09:06:37;101055.19;;;24.41;39.45
10712;BME280;5407;51.234;6.804;2023-01-01T09:09:05;101066.56;;;24.43;39.48
10712;BME280;5407;51.234;6.804;2023-01-01T09:11:32;101061.06;;;24.43;39.48
10712;BME280;5407;51.234;6.804;2023-01-01T09:14:01;101052.78;;;24.43;39.54
10712;BME280;5407;51.234;6.804;2023-01-01T09:16:27;101059.84;;;24.44;39.55
10712;BME280;5407;51.234;6.804;2023-01-01T09:18:54;101068.47;;;24.46;39.48
10712;BME280;5407;51.234;6.804;2023-01-01T09:21:21;101083.03;;;24.47;39.61
10712;BME280;5407;51.234;6.804;2023-01-01T09:23:48;101094.06;;;24.47;39.58
10712;BME280;5407;51.234;6.804;2023-01-01T09:26:16;101077.88;;;24.49;39.51
10712;BME280;5407;51.234;6.804;2023-01-01T09:28:43;101079.88;;;24.48;39.72
10712;BME280;5407;51.234;6.804;2023-01-01T09:31:10;101071.19;;;24.50;39.46
10712;BME280;5407;51.234;6.804;2023-01-01T09:33:37;101077.50;;;24.50;39.71
10712;BME280;5407;51.234;6.804;2023-01-01T09:36:13;101077.03;;;24.52;39.52
10712;BME280;5407;51.234;6.804;2023-01-01T09:38:40;101083.34;;;24.52;39.69
10712;BME280;5407;51.234;6.804;2023-01-01T09:41:15;101084.56;;;24.51;39.80
10712;BME280;5407;51.234;6.804;2023-01-01T09:43:55;101086.13;;;24.52;39.98
10712;BME280;5407;51.234;6.804;2023-01-01T09:46:25;101090.44;;;24.53;40.00
10712;BME280;5407;51.234;6.804;2023-01-01T09:48:54;101086.13;;;24.52;39.96
10712;BME280;5407;51.234;6.804;2023-01-01T09:51:23;101099.47;;;24.54;40.15
10712;BME280;5407;51.234;6.804;2023-01-01T09:53:56;101097.50;;;24.54;40.10
10712;BME280;5407;51.234;6.804;2023-01-01T09:56:26;101103.38;;;24.56;40.40
10712;BME280;5407;51.234;6.804;2023-01-01T09:58:55;101108.09;;;24.56;40.06
10712;BME280;5407;51.234;6.804;2023-01-01T10:01:33;101126.19;;;24.57;40.33
10712;BME280;5407;51.234;6.804;2023-01-01T10:04:20;101119.91;;;24.56;40.41
10712;BME280;5407;51.234;6.804;2023-01-01T10:06:57;101121.47;;;24.57;40.32
10712;BME280;5407;51.234;6.804;2023-01-01T10:09:34;101115.97;;;24.57;40.30
10712;BME280;5407;51.234;6.804;2023-01-01T10:12:09;101119.91;;;24.56;40.00
10712;BME280;5407;51.234;6.804;2023-01-01T10:14:41;101122.69;;;24.56;39.96
10712;BME280;5407;51.234;6.804;2023-01-01T10:17:14;101115.97;;;24.57;40.01
10712;BME280;5407;51.234;6.804;2023-01-01T10:19:44;101114.75;;;24.58;40.27
10712;BME280;5407;51.234;6.804;2023-01-01T10:22:16;101107.69;;;24.57;40.24
10712;BME280;5407;51.234;6.804;2023-01-01T10:24:49;101102.53;;;24.59;40.17
10712;BME280;5407;51.234;6.804;2023-01-01T10:27:26;101100.97;;;24.58;40.15
10712;BME280;5407;51.234;6.804;2023-01-01T10:29:55;101094.25;;;24.59;40.29
10712;BME280;5407;51.234;6.804;2023-01-01T10:32:26;101081.25;;;24.60;40.03
10712;BME280;5407;51.234;6.804;2023-01-01T10:34:54;101085.97;;;24.59;40.22
10712;BME280;5407;51.234;6.804;2023-01-01T10:37:21;101097.00;;;24.59;40.04
10712;BME280;5407;51.234;6.804;2023-01-01T10:39:48;101092.28;;;24.60;40.10
10712;BME280;5407;51.234;6.804;2023-01-01T10:42:16;101104.06;;;24.60;40.07
10712;BME280;5407;51.234;6.804;2023-01-01T10:44:42;101104.06;;;24.60;40.08
10712;BME280;5407;51.234;6.804;2023-01-01T10:47:23;101106.84;;;24.60;40.25
10712;BME280;5407;51.234;6.804;2023-01-01T10:49:55;101082.44;;;24.59;40.08
10712;BME280;5407;51.234;6.804;2023-01-01T10:52:26;101082.00;;;24.60;40.34
10712;BME280;5407;51.234;6.804;2023-01-01T10:54:54;101074.94;;;24.59;40.22
10712;BME280;5407;51.234;6.804;2023-01-01T10:57:29;101074.94;;;24.59;40.25
10712;BME280;5407;51.234;6.804;2023-01-01T11:00:10;101079.25;;;24.60;40.27
10712;BME280;5407;51.234;6.804;2023-01-01T11:02:39;101081.25;;;24.60;40.23
10712;BME280;5407;51.234;6.804;2023-01-01T11:05:15;101084.75;;;24.60;40.25
10712;BME280;5407;51.234;6.804;2023-01-01T11:07:42;101087.50;;;24.60;40.28
10712;BME280;5407;51.234;6.804;2023-01-01T11:10:16;101084.75;;;24.60;40.05
10712;BME280;5407;51.234;6.804;2023-01-01T11:12:44;101094.25;;;24.59;40.19
10712;BME280;5407;51.234;6.804;2023-01-01T11:15:20;101102.53;;;24.59;40.25
10712;BME280;5407;51.234;6.804;2023-01-01T11:17:49;101108.03;;;24.59;40.27
10712;BME280;5407;51.234;6.804;2023-01-01T11:20:18;101110.38;;;24.61;40.13
10712;BME280;5407;51.234;6.804;2023-01-01T11:22:48;101115.09;;;24.60;40.22
10712;BME280;5407;51.234;6.804;2023-01-01T11:25:22;101116.31;;;24.59;40.42
10712;BME280;5407;51.234;6.804;2023-01-01T11:27:50;101123.72;;;24.62;40.31
10712;BME280;5407;51.234;6.804;2023-01-01T11:30:22;101119.78;;;24.63;40.27
10712;BME280;5407;51.234;6.804;2023-01-01T11:32:53;101131.59;;;24.64;40.49
10712;BME280;5407;51.234;6.804;2023-01-01T11:35:23;101124.53;;;24.63;40.47
10712;BME280;5407;51.234;6.804;2023-01-01T11:37:51;101125.63;;;24.65;40.63
10712;BME280;5407;51.234;6.804;2023-01-01T11:40:21;101131.16;;;24.65;40.53
10712;BME280;5407;51.234;6.804;2023-01-01T11:42:51;101125.63;;;24.65;40.63
10712;BME280;5407;51.234;6.804;2023-01-01T11:45:21;101133.16;;;24.65;40.49
10712;BME280;5407;51.234;6.804;2023-01-01T11:47:53;101135.13;;;24.64;40.75
10712;BME280;5407;51.234;6.804;2023-01-01T11:50:25;101139.44;;;24.65;40.75
10712;BME280;5407;51.234;6.804;2023-01-01T11:52:56;101133.91;;;24.65;40.72
10712;BME280;5407;51.234;6.804;2023-01-01T11:55:33;101141.00;;;24.66;40.41
10712;BME280;5407;51.234;6.804;2023-01-01T11:58:11;101133.91;;;24.65;40.37
10712;BME280;5407;51.234;6.804;2023-01-01T12:00:39;101133.91;;;24.65;40.35
10712;BME280;5407;51.234;6.804;2023-01-01T12:03:22;101124.44;;;24.66;40.41
10712;BME280;5407;51.234;6.804;2023-01-01T12:05:55;101120.47;;;24.67;40.33
10712;BME280;5407;51.234;6.804;2023-01-01T12:08:32;101122.03;;;24.68;40.48
10712;BME280;5407;51.234;6.804;2023-01-01T12:11:06;101121.28;;;24.68;40.53
10712;BME280;5407;51.234;6.804;2023-01-01T12:13:43;101115.75;;;24.68;40.35
10712;BME280;5407;51.234;6.804;2023-01-01T12:16:14;101118.06;;;24.69;40.30
10712;BME280;5407;51.234;6.804;2023-01-01T12:18:48;101118.06;;;24.69;40.34
10712;BME280;5407;51.234;6.804;2023-01-01T12:21:23;101108.59;;;24.70;40.35
10712;BME280;5407;51.234;6.804;2023-01-01T12:23:50;101093.22;;;24.69;40.21
10712;BME280;5407;51.234;6.804;2023-01-01T12:26:21;101096.00;;;24.69;40.41
10712;BME280;5407;51.234;6.804;2023-01-01T12:29:09;101096.00;;;24.69;
10712;BME280;5407;51.234;6.804;2023-01-01T12:31:48;101090.47;;;24.69;40.29
10712;BME280;5407;51.234;6.804;2023-01-01T12:34:24;101098.75;;;24.69;40.28
10712;BME280;5407;51.234;6.804;2023-01-01T12:36:59;101093.22;;;24.69;40.12
10712;BME280;5407;51.234;6.804;2023-01-01T12:40:07;101080.22;;;24.70;40.20
10712;BME280;5407;51.234;6.804;2023-01-01T12:42:57;101089.28;;;24.70;40.06
10712;BME280;5407;51.234;6.804;2023-01-01T12:48:48;101098.34;;;24.71;40.11
10712;BME280;5407;51.234;6.804;2023-01-01T12:51:30;101109.38;;;24.71;40.26
10712;BME280;5407;51.234;6.804;2023-01-01T12:54:26;101103.84;;;24.71;40.28
10712;BME280;5407;51.234;6.804;2023-01-01T12:57:01;101108.59;;;24.70;40.23
10712;BME280;5407;51.234;6.804;2023-01-01T12:59:35;101113.34;;;24.70;40.07
10712;BME280;5407;51.234;6.804;2023-01-01T13:02:11;101092.03;;;24.70;40.05
10712;BME280;5407;51.234;6.804;2023-01-01T13:04:40;101087.72;;;24.69;40.19
10712;BME280;5407;51.234;6.804;2023-01-01T13:07:11;101088.50;;;24.70;40.20
10712;BME280;5407;51.234;6.804;2023-01-01T13:09:42;101091.25;;;24.70;39.97
10712;BME280;5407;51.234;6.804;2023-01-01T13:12:11;101090.47;;;24.69;40.09
10712;BME280;5407;51.234;6.804;2023-01-01T13:14:40;101090.47;;;24.69;40.16
10712;BME280;5407;51.234;6.804;2023-01-01T13:17:17;101099.53;;;24.70;40.11
10712;BME280;5407;51.234;6.804;2023-01-01T13:19:45;101096.78;;;24.70;40.03